Time;durP1;ratioP1;P1;durP2;ratioP2;P2;SDS_P1;SDS_P2;PMS_P1;PMS_P2;Temp;Humidity;BMP_temperature;BMP_pressure;BME280_temperature;BME280_humidity;BME280_pressure;Samples;Min_cycle;Max_cycle;Signal;HPM_P1;HPM_P2
2021/11/12 00:03:50;;;;;;;45.75;21.02;;;;;;;;;;10346605;28;20026;-79
2021/11/12 00:14:09;;;;;;;44.70;22.27;;;;;;;;;;10334107;28;20062;-80
2021/11/12 00:19:09;;;;;;;39.28;21.27;;;;;;;;;;10334358;28;20507;-79
2021/11/12 00:24:09;;;;;;;43.72;22.70;;;;;;;;;;10351850;28;20046;-79
2021/11/12 00:29:11;;;;;;;34.58;19.70;;;;;;;;;;10340531;28;20066;-79
2021/11/12 00:40:17;;;;;;;57.45;24.77;;;;;;;;;;10341378;28;20415;-80
2021/11/12 00:55:15;;;;;;;59.55;28.83;;;;;;;;;;10354999;28;20260;-79
2021/11/12 01:00:16;;;;;;;58.80;28.43;;;;;;;;;;10355233;28;20388;-80
2021/11/12 01:05:16;;;;;;;43.45;25.08;;;;;;;;;;10355606;28;20817;-79
2021/11/12 01:10:17;;;;;;;58.72;27.15;;;;;;;;;;10339796;28;20049;-79
2021/11/12 01:15:17;;;;;;;48.10;23.25;;;;;;;;;;10339576;28;20515;-80
2021/11/12 01:20:17;;;;;;;36.58;19.40;;;;;;;;;;10339459;28;20062;-80
2021/11/12 01:25:18;;;;;;;27.10;17.65;;;;;;;;;;10355091;28;20526;-79
2021/11/12 01:30:20;;;;;;;22.23;15.57;;;;;;;;;;10339378;28;20076;-79
2021/11/12 01:35:21;;;;;;;29.67;15.38;;;;;;;;;;10339213;28;20044;-79
2021/11/12 01:40:24;;;;;;;29.83;18.48;;;;;;;;;;10339100;28;20054;-79
2021/11/12 01:50:38;;;;;;;25.23;14.55;;;;;;;;;;10352693;28;20065;-80
2021/11/12 01:55:48;;;;;;;35.13;17.80;;;;;;;;;;10338516;28;20433;-79
2021/11/12 02:00:48;;;;;;;30.83;17.52;;;;;;;;;;10353409;28;20061;-79
2021/11/12 02:05:49;;;;;;;23.13;16.73;;;;;;;;;;10339417;28;20434;-79
2021/11/12 02:10:49;;;;;;;28.52;20.75;;;;;;;;;;10337979;28;20125;-79
2021/11/12 02:15:49;;;;;;;34.78;16.58;;;;;;;;;;10352946;28;20035;-79
2021/11/12 02:20:52;;;;;;;29.30;18.13;;;;;;;;;;10335610;28;20503;-79
2021/11/12 02:25:53;;;;;;;29.48;17.88;;;;;;;;;;10337407;28;20034;-79
2021/11/12 02:30:53;;;;;;;31.40;18.85;;;;;;;;;;10337820;28;20022;-79
2021/11/12 02:36:06;;;;;;;30.60;18.25;;;;;;;;;;10338195;28;20034;-79
2021/11/12 02:41:07;;;;;;;30.48;19.52;;;;;;;;;;10337869;28;20049;-79
2021/11/12 02:46:08;;;;;;;29.77;19.23;;;;;;;;;;10350860;28;20361;-79
2021/11/12 02:51:10;;;;;;;25.70;18.48;;;;;;;;;;10351431;28;20089;-79
2021/11/12 02:56:23;;;;;;;30.60;20.58;;;;;;;;;;10335027;28;20022;-79
2021/11/12 03:01:25;;;;;;;37.67;20.67;;;;;;;;;;10350308;28;20065;-79
2021/11/12 03:06:25;;;;;;;31.60;19.25;;;;;;;;;;10351444;28;20038;-79
2021/11/12 03:11:25;;;;;;;38.47;20.73;;;;;;;;;;10335703;28;20472;-79
2021/11/12 03:16:26;;;;;;;30.88;21.02;;;;;;;;;;10334264;28;20037;-80
2021/11/12 03:21:26;;;;;;;31.50;18.88;;;;;;;;;;10336484;28;20069;-79
2021/11/12 04:03:18;;;;;;;45.20;23.02;;;;;;;;;;10334475;28;20383;-80
2021/11/12 05:44:29;;;;;;;59.35;32.03;;;;;;;;;;10352183;28;20113;-78
2021/11/12 05:59:54;;;;;;;56.17;30.38;;;;;;;;;;10338651;28;20042;-77
2021/11/12 06:04:54;;;;;;;52.78;34.78;;;;;;;;;;10338482;28;20034;-80
2021/11/12 06:09:55;;;;;;;73.18;37.33;;;;;;;;;;10338216;28;20093;-80
2021/11/12 06:14:55;;;;;;;66.70;35.42;;;;;;;;;;10338599;28;20083;-80
2021/11/12 06:19:56;;;;;;;68.25;40.17;;;;;;;;;;10352360;28;20058;-80
2021/11/12 06:24:56;;;;;;;66.43;42.40;;;;;;;;;;10337490;28;20023;-80
2021/11/12 06:29:57;;;;;;;71.18;42.97;;;;;;;;;;10337817;28;20046;-80
2021/11/12 06:34:57;;;;;;;84.72;46.53;;;;;;;;;;10338337;28;20511;-81
2021/11/12 06:39:57;;;;;;;73.85;47.47;;;;;;;;;;10336902;28;20333;-80
2021/11/12 06:50:16;;;;;;;83.57;47.90;;;;;;;;;;10348944;28;20407;-80
2021/11/12 06:55:17;;;;;;;89.72;50.03;;;;;;;;;;10336894;28;20030;-80
2021/11/12 07:00:19;;;;;;;85.22;48.33;;;;;;;;;;10352261;28;20049;-80
2021/11/12 07:05:19;;;;;;;101.78;54.05;;;;;;;;;;10351666;28;20113;-80
2021/11/12 07:10:19;;;;;;;74.22;45.97;;;;;;;;;;10335294;28;20521;-80
2021/11/12 07:15:19;;;;;;;74.82;44.03;;;;;;;;;;10336276;28;20033;-80
2021/11/12 07:20:21;;;;;;;79.18;47.17;;;;;;;;;;10335939;28;20062;-80
2021/11/12 07:25:21;;;;;;;81.95;46.67;;;;;;;;;;10335049;28;20069;-80
2021/11/12 07:30:21;;;;;;;85.53;48.10;;;;;;;;;;10350360;28;20092;-81
2021/11/12 07:35:26;;;;;;;83.78;46.67;;;;;;;;;;10333910;28;20033;-80
2021/11/12 07:40:37;;;;;;;82.55;47.45;;;;;;;;;;10334948;28;20105;-80
2021/11/12 07:45:40;;;;;;;88.07;43.53;;;;;;;;;;10334330;28;20025;-80
2021/11/12 07:50:41;;;;;;;74.10;44.53;;;;;;;;;;10350346;28;20101;-80
2021/11/12 07:55:41;;;;;;;64.57;42.08;;;;;;;;;;10349387;28;20101;-80
2021/11/12 08:00:41;;;;;;;84.93;40.58;;;;;;;;;;10333080;28;20400;-80
2021/11/12 08:05:44;;;;;;;72.75;38.65;;;;;;;;;;10334274;28;20353;-80
2021/11/12 08:21:10;;;;;;;57.47;35.58;;;;;;;;;;10346947;28;20046;-80
2021/11/12 08:41:56;;;;;;;50.30;36.30;;;;;;;;;;10348275;28;20035;-80
2021/11/12 08:47:18;;;;;;;64.25;35.17;;;;;;;;;;10354171;28;20433;-81
2021/11/12 08:52:19;;;;;;;58.28;37.70;;;;;;;;;;10342388;28;20026;-80
2021/11/12 08:57:19;;;;;;;48.22;32.28;;;;;;;;;;10340261;28;20038;-80
2021/11/12 09:02:24;;;;;;;64.37;34.67;;;;;;;;;;10355646;28;20113;-80
2021/11/12 09:07:24;;;;;;;52.00;31.67;;;;;;;;;;10340700;28;20264;-80
2021/11/12 09:12:25;;;;;;;60.70;36.20;;;;;;;;;;10340958;28;20030;-80
2021/11/12 09:17:30;;;;;;;67.10;36.97;;;;;;;;;;10340023;28;20026;-80
2021/11/12 09:22:32;;;;;;;53.75;32.75;;;;;;;;;;10342064;28;20046;-80
2021/11/12 09:27:32;;;;;;;49.17;31.50;;;;;;;;;;10339922;28;20035;-80
2021/11/12 09:32:32;;;;;;;57.20;34.05;;;;;;;;;;10356216;28;20375;-79
2021/11/12 09:37:32;;;;;;;53.45;32.53;;;;;;;;;;10355285;28;20030;-80
2021/11/12 09:42:34;;;;;;;54.00;29.48;;;;;;;;;;10338599;28;20038;-80
2021/11/12 09:47:34;;;;;;;62.45;35.40;;;;;;;;;;10339041;28;20025;-80
2021/11/12 09:52:35;;;;;;;62.55;33.20;;;;;;;;;;10338674;28;20349;-80
2021/11/12 09:57:35;;;;;;;62.78;32.45;;;;;;;;;;10338256;28;20038;-79
2021/11/12 10:02:41;;;;;;;58.88;34.00;;;;;;;;;;10338064;28;20329;-80
2021/11/12 10:07:41;;;;;;;49.70;30.50;;;;;;;;;;10338743;28;20113;-80
2021/11/12 10:12:46;;;;;;;45.67;28.63;;;;;;;;;;10339251;28;20149;-80
2021/11/12 10:17:46;;;;;;;44.00;28.10;;;;;;;;;;10352095;28;20042;-79
2021/11/12 10:22:47;;;;;;;45.13;27.25;;;;;;;;;;10335370;28;20066;-80
2021/11/12 10:27:50;;;;;;;52.78;29.08;;;;;;;;;;10337486;28;20029;-79
2021/11/12 10:32:55;;;;;;;39.78;26.17;;;;;;;;;;10336516;28;20033;-79
2021/11/12 10:38:05;;;;;;;42.03;25.25;;;;;;;;;;10336790;28;20058;-80
2021/11/12 10:43:06;;;;;;;37.10;24.63;;;;;;;;;;10352053;28;20097;-79
2021/11/12 10:48:07;;;;;;;36.97;23.80;;;;;;;;;;10352232;28;20080;-79
2021/11/12 10:53:11;;;;;;;40.90;26.15;;;;;;;;;;10350676;28;20118;-79
2021/11/12 10:58:12;;;;;;;35.60;23.10;;;;;;;;;;10336077;28;20030;-80
2021/11/12 11:03:13;;;;;;;46.30;24.55;;;;;;;;;;10336420;28;20113;-79
2021/11/12 11:08:13;;;;;;;35.88;23.10;;;;;;;;;;10334738;28;20105;-80
2021/11/12 11:13:14;;;;;;;41.47;23.77;;;;;;;;;;10335660;28;20022;-80
2021/11/12 11:18:24;;;;;;;33.78;22.08;;;;;;;;;;10336112;28;20054;-79
2021/11/12 11:23:25;;;;;;;35.95;26.08;;;;;;;;;;10336106;28;20068;-79
2021/11/12 11:28:25;;;;;;;35.75;25.17;;;;;;;;;;10335850;28;20015;-80
2021/11/12 11:33:25;;;;;;;36.03;24.85;;;;;;;;;;10336545;28;20316;-79
2021/11/12 11:38:29;;;;;;;42.90;23.90;;;;;;;;;;10334481;28;20356;-80
2021/11/12 11:43:30;;;;;;;34.65;22.88;;;;;;;;;;10334801;28;20752;-79
2021/11/12 11:48:34;;;;;;;32.45;22.75;;;;;;;;;;10349624;28;20026;-79
2021/11/12 11:53:40;;;;;;;33.65;21.45;;;;;;;;;;10334301;28;20121;-79
2021/11/12 11:58:42;;;;;;;33.80;22.13;;;;;;;;;;10334605;28;20022;-79
2021/11/12 12:03:43;;;;;;;39.15;23.23;;;;;;;;;;10349669;28;20018;-79
2021/11/12 12:09:01;;;;;;;46.78;23.67;;;;;;;;;;10334931;28;20010;-79
2021/11/12 12:14:20;;;;;;;31.27;21.08;;;;;;;;;;10348640;28;20030;-80
2021/11/12 12:20:00;;;;;;;37.03;22.52;;;;;;;;;;10335482;28;20042;-79
2021/11/12 12:31:05;;;;;;;32.80;21.83;;;;;;;;;;10354433;28;20466;-79
2021/11/12 12:42:34;;;;;;;28.85;19.00;;;;;;;;;;10342181;28;20446;-79
2021/11/12 13:24:29;;;;;;;20.67;14.15;;;;;;;;;;10340279;28;20026;-79
2021/11/12 13:29:29;;;;;;;19.58;11.98;;;;;;;;;;10340216;28;20029;-80
2021/11/12 13:34:30;;;;;;;26.00;12.65;;;;;;;;;;10336900;28;20128;-79
2021/11/12 13:39:30;;;;;;;16.58;11.93;;;;;;;;;;10340154;28;20018;-79
2021/11/12 13:44:31;;;;;;;26.10;12.30;;;;;;;;;;10339881;28;20451;-79
2021/11/12 13:49:35;;;;;;;13.07;10.52;;;;;;;;;;10354151;28;20105;-79
2021/11/12 13:54:39;;;;;;;19.50;14.00;;;;;;;;;;10338865;28;20033;-79
2021/11/12 13:59:51;;;;;;;25.30;11.68;;;;;;;;;;10354856;28;20494;-79
2021/11/12 14:04:52;;;;;;;18.45;11.27;;;;;;;;;;10337771;28;20026;-79
2021/11/12 14:10:00;;;;;;;23.98;11.52;;;;;;;;;;10353510;28;20451;-79
2021/11/12 14:15:15;;;;;;;20.73;10.30;;;;;;;;;;10338147;28;20036;-79
2021/11/12 14:20:32;;;;;;;21.00;11.35;;;;;;;;;;10337489;28;20050;-79
2021/11/12 14:26:05;;;;;;;18.77;10.63;;;;;;;;;;10338228;28;20030;-79
2021/11/12 14:31:35;;;;;;;16.90;10.68;;;;;;;;;;10349635;28;20143;-79
2021/11/12 14:36:37;;;;;;;14.63;9.00;;;;;;;;;;10348696;28;20044;-79
2021/11/12 14:47:29;;;;;;;18.75;8.52;;;;;;;;;;10336857;28;20026;-79
2021/11/12 14:52:29;;;;;;;11.85;9.00;;;;;;;;;;10352487;28;20022;-79
2021/11/12 14:57:32;;;;;;;12.90;9.43;;;;;;;;;;10335447;28;20458;-79
2021/11/12 15:02:33;;;;;;;13.50;8.25;;;;;;;;;;10336743;28;20034;-79
2021/11/12 15:07:58;;;;;;;16.08;8.73;;;;;;;;;;10334671;28;20026;-79
2021/11/12 15:12:57;;;;;;;17.80;9.05;;;;;;;;;;10347369;28;20029;-78
2021/11/12 15:18:03;;;;;;;18.55;9.63;;;;;;;;;;10335943;28;20026;-79
2021/11/12 15:33:28;;;;;;;8.83;7.67;;;;;;;;;;10335651;28;20027;-78
2021/11/12 15:43:55;;;;;;;9.80;7.20;;;;;;;;;;10334682;28;20026;-78
2021/11/12 15:48:56;;;;;;;12.27;7.07;;;;;;;;;;10335796;28;20024;-78
2021/11/12 16:09:41;;;;;;;11.25;8.93;;;;;;;;;;10334054;28;20023;-78
2021/11/12 16:14:49;;;;;;;9.95;6.75;;;;;;;;;;10334178;28;20117;-78
2021/11/12 16:30:04;;;;;;;12.93;7.85;;;;;;;;;;10333728;28;20027;-78
2021/11/12 16:35:09;;;;;;;12.52;8.35;;;;;;;;;;10333696;28;20022;-78
2021/11/12 16:40:15;;;;;;;11.75;9.05;;;;;;;;;;10348378;28;20030;-78
2021/11/12 16:50:36;;;;;;;9.07;8.15;;;;;;;;;;10333605;28;20026;-78
2021/11/12 17:06:01;;;;;;;12.17;8.83;;;;;;;;;;10335089;28;20046;-78
2021/11/12 17:11:09;;;;;;;15.38;10.45;;;;;;;;;;10354122;28;20014;-78
2021/11/12 17:48:22;;;;;;;14.23;9.38;;;;;;;;;;10351869;28;20062;-78
2021/11/12 17:53:54;;;;;;;15.17;10.60;;;;;;;;;;10340030;28;20021;-78
2021/11/12 18:01:39;;;;;;;16.23;11.27;;;;;;;;;;10337794;28;20084;-78
2021/11/12 18:04:17;;;;;;;23.25;11.65;;;;;;;;;;10337716;28;20069;-78
2021/11/12 18:09:47;;;;;;;20.67;10.50;;;;;;;;;;10339046;28;20023;-78
2021/11/12 21:43:45;;;;;;;25.65;17.92;;;;;;;;;;10338570;28;20062;-79
2021/11/12 21:48:50;;;;;;;24.42;16.08;;;;;;;;;;10338822;28;20026;-79
2021/11/12 21:53:53;;;;;;;29.08;19.05;;;;;;;;;;10338746;28;20061;-80
2021/11/12 21:58:54;;;;;;;38.25;18.42;;;;;;;;;;10338420;28;20026;-80
2021/11/12 22:03:54;;;;;;;27.60;17.27;;;;;;;;;;10352910;28;20031;-80
2021/11/12 22:08:54;;;;;;;28.88;19.40;;;;;;;;;;10353194;28;20030;-80
2021/11/12 22:13:55;;;;;;;29.42;19.10;;;;;;;;;;10338034;28;20043;-79
2021/11/12 22:18:55;;;;;;;25.88;17.33;;;;;;;;;;10337896;28;20122;-79
2021/11/12 22:23:55;;;;;;;46.00;23.20;;;;;;;;;;10339096;28;20066;-79
2021/11/12 22:28:55;;;;;;;35.42;20.08;;;;;;;;;;10338821;28;20389;-79
2021/11/12 22:33:56;;;;;;;30.05;20.17;;;;;;;;;;10353323;28;20511;-79
2021/11/12 22:38:56;;;;;;;26.33;17.90;;;;;;;;;;10336717;28;20039;-79
2021/11/12 22:43:59;;;;;;;25.73;17.80;;;;;;;;;;10335751;28;20112;-80
2021/11/12 22:48:59;;;;;;;31.77;19.80;;;;;;;;;;10336858;28;20030;-80
2021/11/12 22:54:00;;;;;;;32.22;19.40;;;;;;;;;;10335402;28;20085;-80
2021/11/12 22:59:00;;;;;;;27.48;18.63;;;;;;;;;;10336496;28;20038;-80
2021/11/12 23:04:00;;;;;;;32.40;21.00;;;;;;;;;;10336379;28;20042;-80
2021/11/12 23:09:01;;;;;;;31.20;21.88;;;;;;;;;;10335528;28;20496;-80
2021/11/12 23:14:01;;;;;;;37.13;20.35;;;;;;;;;;10335360;28;20027;-80
2021/11/12 23:19:01;;;;;;;33.05;21.73;;;;;;;;;;10335643;28;20038;-80
2021/11/12 23:24:01;;;;;;;28.83;20.48;;;;;;;;;;10333835;28;20065;-80
2021/11/12 23:29:02;;;;;;;25.52;19.42;;;;;;;;;;10334784;28;20042;-80
2021/11/12 23:34:02;;;;;;;28.95;22.67;;;;;;;;;;10335228;28;20279;-80
2021/11/12 23:39:03;;;;;;;29.52;22.17;;;;;;;;;;10335101;28;20500;-80
2021/11/12 23:44:03;;;;;;;30.50;21.53;;;;;;;;;;10334341;28;20030;-81
2021/11/12 23:49:03;;;;;;;42.22;24.63;;;;;;;;;;10332783;28;20276;-81
2021/11/12 23:54:03;;;;;;;32.35;21.73;;;;;;;;;;10334972;28;20076;-81
2021/11/12 23:59:04;;;;;;;23.70;19.88;;;;;;;;;;10333683;28;20041;-81
